Time;durP1;ratioP1;P1;durP2;ratioP2;P2;SDS_P1;SDS_P2;PMS_P1;PMS_P2;Temp;Humidity;BMP_temperature;BMP_pressure;BME280_temperature;BME280_humidity;BME280_pressure;Samples;Min_cycle;Max_cycle;Signal;HPM_P1;HPM_P2
2023/11/04 00:03:12;;;;;;;4.40;2.20;;;;;;;;;;10250176;28;20031;-54
2023/11/04 00:08:13;;;;;;;3.20;2.20;;;;;;;;;;10242320;28;20031;-53
2023/11/04 00:13:14;;;;;;;7.28;2.55;;;;;;;;;;10242152;28;20023;-53
2023/11/04 00:18:14;;;;;;;5.88;2.30;;;;;;;;;;10250331;28;20024;-54
2023/11/04 00:23:15;;;;;;;9.60;2.53;;;;;;;;;;10248690;29;20027;-53
2023/11/04 00:28:15;;;;;;;8.02;2.22;;;;;;;;;;10252627;28;20035;-54
2023/11/04 00:33:16;;;;;;;5.35;2.28;;;;;;;;;;10240291;28;20031;-51
2023/11/04 00:38:17;;;;;;;5.53;2.10;;;;;;;;;;10247109;29;20030;-53
2023/11/04 00:43:17;;;;;;;3.65;1.98;;;;;;;;;;10245908;28;20415;-52
2023/11/04 00:48:18;;;;;;;5.70;2.05;;;;;;;;;;10241188;28;20391;-53
2023/11/04 00:53:18;;;;;;;2.85;1.80;;;;;;;;;;10244547;28;20054;-52
2023/11/04 00:58:19;;;;;;;4.53;2.13;;;;;;;;;;10245743;28;20118;-51
2023/11/04 01:03:20;;;;;;;5.93;2.35;;;;;;;;;;10248120;28;20031;-52
2023/11/04 01:08:20;;;;;;;7.40;2.22;;;;;;;;;;10251308;28;20031;-63
2023/11/04 01:13:21;;;;;;;5.50;2.50;;;;;;;;;;10243366;28;20035;-58
2023/11/04 01:18:22;;;;;;;5.28;1.98;;;;;;;;;;10245584;28;20491;-51
2023/11/04 01:23:22;;;;;;;3.60;1.85;;;;;;;;;;10241371;28;20070;-54
2023/11/04 01:28:23;;;;;;;6.00;2.20;;;;;;;;;;10245101;28;20027;-53
2023/11/04 01:33:26;;;;;;;4.15;2.00;;;;;;;;;;10239294;28;20509;-51
2023/11/04 01:38:26;;;;;;;1.83;1.65;;;;;;;;;;10244433;28;20098;-52
2023/11/04 01:43:29;;;;;;;5.07;2.20;;;;;;;;;;10244623;28;20035;-51
2023/11/04 01:48:29;;;;;;;2.47;1.85;;;;;;;;;;10245722;29;20091;-53
2023/11/04 01:53:32;;;;;;;3.30;2.00;;;;;;;;;;10240304;28;20051;-52
2023/11/04 01:58:36;;;;;;;4.65;1.85;;;;;;;;;;10243436;28;20063;-55
2023/11/04 02:03:38;;;;;;;4.55;2.03;;;;;;;;;;10239780;28;20474;-62
2023/11/04 02:08:38;;;;;;;3.25;1.90;;;;;;;;;;10252491;28;20031;-56
2023/11/04 02:13:39;;;;;;;4.18;1.73;;;;;;;;;;10238033;28;20031;-61
2023/11/04 02:18:39;;;;;;;2.13;1.60;;;;;;;;;;10234009;28;20031;-54
2023/11/04 02:23:40;;;;;;;1.70;1.60;;;;;;;;;;10244879;28;20414;-56
2023/11/04 02:28:41;;;;;;;3.58;1.70;;;;;;;;;;10245243;28;20051;-53
2023/11/04 02:33:41;;;;;;;4.90;1.75;;;;;;;;;;10243348;28;20446;-50
2023/11/04 02:38:42;;;;;;;3.03;1.92;;;;;;;;;;10242886;28;20587;-53
2023/11/04 02:43:42;;;;;;;2.72;1.85;;;;;;;;;;10243597;28;20491;-52
2023/11/04 02:48:43;;;;;;;3.85;2.08;;;;;;;;;;10245422;28;20070;-56
2023/11/04 02:53:44;;;;;;;2.95;1.65;;;;;;;;;;10242824;28;20043;-64
2023/11/04 02:58:44;;;;;;;2.67;1.70;;;;;;;;;;10243918;28;20032;-54
2023/11/04 03:03:45;;;;;;;2.95;1.67;;;;;;;;;;10244611;28;20039;-54
2023/11/04 03:08:45;;;;;;;3.08;1.77;;;;;;;;;;10238419;28;20024;-58
2023/11/04 03:13:46;;;;;;;1.85;1.70;;;;;;;;;;10244480;29;20078;-51
2023/11/04 03:18:47;;;;;;;2.15;1.60;;;;;;;;;;10239215;29;20033;-53
2023/11/04 03:23:48;;;;;;;5.55;1.70;;;;;;;;;;10243209;28;20031;-54
2023/11/04 03:28:48;;;;;;;4.68;2.10;;;;;;;;;;10241776;28;20744;-49
2023/11/04 03:33:49;;;;;;;4.50;1.73;;;;;;;;;;10244376;28;20047;-50
2023/11/04 03:38:50;;;;;;;2.85;1.50;;;;;;;;;;10242295;29;20035;-52
2023/11/04 03:43:50;;;;;;;1.77;1.48;;;;;;;;;;10244450;28;20030;-54
2023/11/04 03:48:51;;;;;;;2.38;1.70;;;;;;;;;;10243915;28;20027;-53
2023/11/04 03:53:52;;;;;;;2.22;1.58;;;;;;;;;;10253607;28;20578;-56
2023/11/04 03:58:52;;;;;;;1.77;1.60;;;;;;;;;;10252454;28;20055;-59
2023/11/04 04:03:53;;;;;;;2.95;1.48;;;;;;;;;;10244111;29;20512;-61
2023/11/04 04:08:54;;;;;;;1.98;1.75;;;;;;;;;;10247328;28;20043;-50
2023/11/04 04:13:54;;;;;;;2.47;1.50;;;;;;;;;;10249225;28;20042;-52
2023/11/04 04:18:55;;;;;;;4.57;1.60;;;;;;;;;;10235927;29;20039;-55
2023/11/04 04:23:55;;;;;;;3.75;1.73;;;;;;;;;;10248577;28;20027;-55
2023/11/04 04:28:57;;;;;;;3.55;1.50;;;;;;;;;;10239837;28;20034;-55
2023/11/04 04:33:58;;;;;;;6.28;2.13;;;;;;;;;;10248249;29;20027;-53
2023/11/04 04:38:58;;;;;;;6.50;1.48;;;;;;;;;;10244973;28;20028;-54
2023/11/04 04:43:59;;;;;;;1.70;1.52;;;;;;;;;;10249040;28;20027;-54
2023/11/04 04:48:59;;;;;;;1.92;1.40;;;;;;;;;;10242404;28;20082;-51
2023/11/04 04:54:00;;;;;;;1.42;1.33;;;;;;;;;;10232354;29;20056;-52
2023/11/04 04:59:01;;;;;;;2.60;1.63;;;;;;;;;;10249392;28;20521;-55
2023/11/04 05:04:01;;;;;;;2.78;1.63;;;;;;;;;;10248380;28;20039;-54
2023/11/04 05:09:03;;;;;;;2.08;1.40;;;;;;;;;;10245204;29;20036;-54
2023/11/04 05:14:03;;;;;;;5.75;1.90;;;;;;;;;;10248337;28;20487;-53
2023/11/04 05:19:04;;;;;;;3.50;1.40;;;;;;;;;;10236627;28;20024;-52
2023/11/04 05:24:06;;;;;;;2.63;1.50;;;;;;;;;;10247394;28;20062;-65
2023/11/04 05:29:08;;;;;;;1.77;1.50;;;;;;;;;;10236633;28;20027;-52
2023/11/04 05:34:11;;;;;;;5.00;1.30;;;;;;;;;;10246751;28;20106;-61
2023/11/04 05:39:12;;;;;;;3.38;1.52;;;;;;;;;;10245571;28;20063;-55
2023/11/04 05:44:13;;;;;;;2.30;1.50;;;;;;;;;;10246505;28;20031;-56
2023/11/04 05:49:13;;;;;;;3.17;1.58;;;;;;;;;;10242367;29;20046;-61
2023/11/04 05:54:14;;;;;;;5.72;1.60;;;;;;;;;;10246158;28;20079;-55
2023/11/04 05:59:14;;;;;;;1.27;1.20;;;;;;;;;;10242304;28;20102;-61
2023/11/04 06:04:15;;;;;;;5.03;1.35;;;;;;;;;;10244983;28;20043;-52
2023/11/04 06:09:16;;;;;;;1.75;1.30;;;;;;;;;;10246351;28;20660;-52
2023/11/04 06:14:17;;;;;;;2.55;1.52;;;;;;;;;;10243625;28;20035;-60
2023/11/04 06:19:18;;;;;;;2.00;1.42;;;;;;;;;;10241686;28;20039;-61
2023/11/04 06:24:18;;;;;;;3.17;1.52;;;;;;;;;;10233565;28;20452;-55
2023/11/04 06:29:19;;;;;;;2.25;1.38;;;;;;;;;;10246148;28;20023;-63
2023/11/04 06:34:20;;;;;;;2.47;1.30;;;;;;;;;;10249082;28;20046;-53
2023/11/04 06:39:21;;;;;;;1.48;1.17;;;;;;;;;;10252283;28;20034;-53
2023/11/04 06:44:21;;;;;;;2.10;1.40;;;;;;;;;;10245293;28;20026;-56
2023/11/04 06:49:22;;;;;;;4.30;1.20;;;;;;;;;;10248561;28;20042;-53
2023/11/04 06:54:22;;;;;;;14.00;1.42;;;;;;;;;;10236177;29;20106;-64
2023/11/04 06:59:23;;;;;;;1.25;1.17;;;;;;;;;;10250934;28;20392;-51
2023/11/04 07:04:23;;;;;;;1.60;1.23;;;;;;;;;;10249795;28;20028;-49
2023/11/04 07:09:24;;;;;;;1.85;1.20;;;;;;;;;;10243991;28;20035;-60
2023/11/04 07:14:25;;;;;;;1.30;1.20;;;;;;;;;;10244302;29;20023;-63
2023/11/04 07:19:26;;;;;;;1.50;1.33;;;;;;;;;;10243465;28;20031;-56
2023/11/04 07:24:35;;;;;;;1.85;1.30;;;;;;;;;;10242206;28;20043;-53
2023/11/04 07:29:36;;;;;;;1.80;1.17;;;;;;;;;;10238670;28;20035;-51
2023/11/04 07:34:36;;;;;;;4.30;1.50;;;;;;;;;;10235763;28;20035;-53
2023/11/04 07:39:40;;;;;;;2.20;1.50;;;;;;;;;;10230592;29;20042;-53
2023/11/04 07:44:40;;;;;;;4.40;1.30;;;;;;;;;;10232094;29;20032;-63
2023/11/04 07:49:41;;;;;;;1.23;1.10;;;;;;;;;;10237800;28;20031;-54
2023/11/04 07:54:41;;;;;;;1.70;1.25;;;;;;;;;;10228084;29;20047;-52
2023/11/04 07:59:42;;;;;;;1.33;1.23;;;;;;;;;;10230506;29;20030;-49
2023/11/04 08:04:43;;;;;;;2.10;1.38;;;;;;;;;;10231259;29;20399;-51
2023/11/04 08:09:43;;;;;;;4.57;1.33;;;;;;;;;;10235280;28;20496;-52
2023/11/04 08:14:44;;;;;;;12.32;1.10;;;;;;;;;;10231226;28;20094;-62
2023/11/04 08:19:44;;;;;;;1.20;1.15;;;;;;;;;;10233894;28;20027;-49
2023/11/04 08:24:45;;;;;;;5.82;1.60;;;;;;;;;;10228951;29;20083;-54
2023/11/04 08:29:46;;;;;;;2.85;1.23;;;;;;;;;;10234504;28;20031;-54
2023/11/04 08:34:47;;;;;;;1.55;1.35;;;;;;;;;;10225264;29;20020;-57
2023/11/04 08:39:48;;;;;;;6.60;1.40;;;;;;;;;;10235639;28;20404;-53
2023/11/04 08:44:49;;;;;;;3.97;1.48;;;;;;;;;;10231647;28;20435;-52
2023/11/04 08:49:49;;;;;;;7.32;1.35;;;;;;;;;;10236766;28;20042;-54
2023/11/04 08:54:50;;;;;;;5.50;1.38;;;;;;;;;;10247647;28;20047;-53
2023/11/04 08:59:51;;;;;;;10.38;1.83;;;;;;;;;;10248136;28;20483;-54
2023/11/04 09:04:51;;;;;;;3.05;1.55;;;;;;;;;;10251196;28;20023;-54
2023/11/04 09:09:52;;;;;;;12.75;1.80;;;;;;;;;;10250189;28;20046;-55
2023/11/04 09:14:52;;;;;;;9.80;1.70;;;;;;;;;;10247684;29;20082;-52
2023/11/04 09:19:53;;;;;;;3.75;1.75;;;;;;;;;;10243388;29;20035;-53
2023/11/04 09:24:53;;;;;;;2.10;1.30;;;;;;;;;;10247375;28;20027;-54
2023/11/04 09:29:54;;;;;;;8.25;1.60;;;;;;;;;;10245915;28;20023;-52
2023/11/04 09:34:56;;;;;;;12.38;1.88;;;;;;;;;;10244430;28;20086;-61
2023/11/04 09:39:57;;;;;;;6.20;1.48;;;;;;;;;;10247201;28;20042;-57
2023/11/04 09:44:57;;;;;;;5.70;1.33;;;;;;;;;;10229870;28;20043;-55
2023/11/04 09:49:59;;;;;;;7.85;1.35;;;;;;;;;;10232128;28;20042;-53
2023/11/04 09:55:01;;;;;;;4.88;1.60;;;;;;;;;;10228787;29;20028;-54
2023/11/04 10:00:03;;;;;;;5.85;1.63;;;;;;;;;;10232884;28;20078;-58
2023/11/04 10:05:04;;;;;;;13.40;2.08;;;;;;;;;;10229892;28;20039;-55
2023/11/04 10:10:09;;;;;;;6.50;1.80;;;;;;;;;;10234588;28;20024;-54
2023/11/04 10:15:10;;;;;;;5.35;1.98;;;;;;;;;;10231109;28;20106;-57
2023/11/04 10:20:12;;;;;;;7.70;1.80;;;;;;;;;;10222491;28;20031;-56
2023/11/04 10:25:14;;;;;;;5.15;1.88;;;;;;;;;;10216854;28;20039;-57
2023/11/04 10:30:15;;;;;;;15.32;1.75;;;;;;;;;;10230817;28;20032;-63
2023/11/04 10:35:18;;;;;;;4.75;1.83;;;;;;;;;;10226671;28;20086;-51
2023/11/04 10:40:20;;;;;;;3.63;1.58;;;;;;;;;;10227531;29;20027;-61
2023/11/04 10:45:36;;;;;;;10.32;1.98;;;;;;;;;;10231143;28;20171;-54
2023/11/04 10:50:43;;;;;;;3.45;1.90;;;;;;;;;;10230895;28;20051;-51
2023/11/04 10:56:05;;;;;;;2.88;1.60;;;;;;;;;;10232577;29;20090;-53
2023/11/04 11:01:07;;;;;;;6.32;1.52;;;;;;;;;;10237977;28;20024;-52
2023/11/04 11:06:11;;;;;;;7.35;1.50;;;;;;;;;;10233954;29;20032;-51
2023/11/04 11:11:24;;;;;;;4.85;1.50;;;;;;;;;;10231507;28;20031;-52
2023/11/04 11:16:25;;;;;;;1.92;1.50;;;;;;;;;;10232852;29;20463;-52
2023/11/04 11:21:26;;;;;;;4.28;1.75;;;;;;;;;;10233946;29;20099;-51
2023/11/04 11:26:26;;;;;;;3.30;1.38;;;;;;;;;;10220046;28;20131;-55
2023/11/04 11:31:29;;;;;;;3.40;1.50;;;;;;;;;;10234111;28;20035;-48
2023/11/04 11:36:31;;;;;;;3.65;1.40;;;;;;;;;;10228472;28;20040;-54
2023/11/04 11:41:43;;;;;;;3.40;1.50;;;;;;;;;;10227552;28;20038;-53
2023/11/04 11:46:43;;;;;;;4.45;2.00;;;;;;;;;;10229788;28;20043;-53
2023/11/04 11:51:44;;;;;;;2.42;1.90;;;;;;;;;;10244682;23;20067;-62
2023/11/04 11:56:45;;;;;;;4.25;2.10;;;;;;;;;;10225420;28;20484;-65
2023/11/04 12:01:47;;;;;;;3.10;1.80;;;;;;;;;;10230141;28;20391;-65
2023/11/04 12:06:52;;;;;;;5.18;1.90;;;;;;;;;;10226513;28;20530;-64
2023/11/04 12:11:53;;;;;;;18.40;2.03;;;;;;;;;;10224679;28;20054;-64
2023/11/04 12:16:54;;;;;;;4.75;1.88;;;;;;;;;;10248491;28;20039;-64
2023/11/04 12:21:55;;;;;;;3.30;2.08;;;;;;;;;;10247696;28;20034;-64
2023/11/04 12:26:58;;;;;;;7.72;2.28;;;;;;;;;;10248686;28;20031;-64
2023/11/04 12:32:00;;;;;;;5.18;2.47;;;;;;;;;;10248521;28;20042;-63
2023/11/04 12:37:01;;;;;;;7.03;2.17;;;;;;;;;;10249213;28;20594;-63
2023/11/04 12:42:01;;;;;;;3.40;2.45;;;;;;;;;;10248432;28;20027;-62
2023/11/04 12:47:04;;;;;;;5.10;2.35;;;;;;;;;;10244827;28;20038;-62
2023/11/04 12:52:06;;;;;;;5.28;2.90;;;;;;;;;;10241848;28;20065;-63
2023/11/04 12:57:07;;;;;;;4.00;2.15;;;;;;;;;;10219158;28;20091;-62
2023/11/04 13:02:07;;;;;;;3.90;2.50;;;;;;;;;;10218852;29;20032;-62
2023/11/04 13:07:08;;;;;;;5.95;2.30;;;;;;;;;;10218569;28;20043;-62
2023/11/04 13:12:09;;;;;;;3.00;2.25;;;;;;;;;;10232970;28;20056;-62
2023/11/04 13:17:10;;;;;;;3.45;2.20;;;;;;;;;;10221493;28;20027;-62
2023/11/04 13:22:10;;;;;;;3.13;2.15;;;;;;;;;;10232653;28;20062;-62
2023/11/04 13:27:11;;;;;;;6.70;2.05;;;;;;;;;;10246977;28;20023;-62
2023/11/04 13:32:12;;;;;;;2.85;1.65;;;;;;;;;;10249281;28;20201;-62
2023/11/04 13:37:13;;;;;;;2.92;1.70;;;;;;;;;;10241038;28;20027;-62
2023/11/04 13:42:14;;;;;;;4.22;2.03;;;;;;;;;;10245847;28;20031;-63
2023/11/04 13:47:16;;;;;;;3.90;2.03;;;;;;;;;;10246061;28;20135;-63
2023/11/04 13:52:16;;;;;;;4.13;1.92;;;;;;;;;;10241730;28;20079;-63
2023/11/04 13:57:17;;;;;;;2.22;1.70;;;;;;;;;;10245009;28;20118;-63
2023/11/04 14:02:17;;;;;;;2.53;1.65;;;;;;;;;;10232354;28;20053;-63
2023/11/04 14:07:19;;;;;;;5.93;1.90;;;;;;;;;;10224427;29;20032;-64
2023/11/04 14:12:20;;;;;;;2.30;1.70;;;;;;;;;;10231062;28;20039;-62
2023/11/04 14:17:20;;;;;;;2.20;1.63;;;;;;;;;;10261095;28;20035;-63
2023/11/04 14:22:21;;;;;;;5.70;1.40;;;;;;;;;;10253572;28;20478;-62
2023/11/04 14:27:22;;;;;;;1.42;1.20;;;;;;;;;;10241224;29;20151;-63
2023/11/04 14:32:22;;;;;;;2.83;1.42;;;;;;;;;;10241461;29;20667;-63
2023/11/04 14:37:24;;;;;;;2.08;1.52;;;;;;;;;;10252937;28;20035;-63
2023/11/04 14:42:25;;;;;;;1.38;1.20;;;;;;;;;;10245088;28;20039;-64
2023/11/04 14:47:25;;;;;;;4.35;1.40;;;;;;;;;;10244013;28;20479;-64
2023/11/04 14:52:26;;;;;;;1.63;1.30;;;;;;;;;;10243305;29;20676;-63
2023/11/04 14:57:26;;;;;;;2.58;1.30;;;;;;;;;;10242243;28;20094;-63
2023/11/04 15:02:27;;;;;;;3.22;1.40;;;;;;;;;;10245366;28;20511;-63
2023/11/04 15:07:28;;;;;;;3.03;1.60;;;;;;;;;;10244140;28;20214;-63
2023/11/04 15:12:29;;;;;;;1.40;1.20;;;;;;;;;;10244334;28;20502;-63
2023/11/04 15:17:29;;;;;;;3.92;1.27;;;;;;;;;;10251919;28;20035;-62
2023/11/04 15:22:30;;;;;;;2.45;1.40;;;;;;;;;;10245876;28;20034;-62
2023/11/04 15:27:30;;;;;;;1.30;1.17;;;;;;;;;;10242616;28;20039;-63
2023/11/04 15:32:31;;;;;;;1.23;1.13;;;;;;;;;;10246118;28;20039;-63
2023/11/04 15:37:32;;;;;;;2.05;1.30;;;;;;;;;;10240269;28;20031;-63
2023/11/04 15:42:32;;;;;;;3.15;1.25;;;;;;;;;;10249701;28;20038;-63
2023/11/04 15:47:33;;;;;;;1.42;1.20;;;;;;;;;;10224326;28;20082;-63
2023/11/04 15:52:34;;;;;;;1.30;1.10;;;;;;;;;;10220298;28;20047;-63
2023/11/04 15:57:34;;;;;;;2.35;1.20;;;;;;;;;;10209763;28;20019;-63
2023/11/04 16:02:36;;;;;;;2.05;1.20;;;;;;;;;;10227832;28;20038;-63
2023/11/04 16:07:40;;;;;;;4.55;1.33;;;;;;;;;;10228625;28;20056;-63
2023/11/04 16:12:42;;;;;;;5.13;1.40;;;;;;;;;;10226271;28;20617;-63
2023/11/04 16:17:42;;;;;;;2.78;1.23;;;;;;;;;;10254413;28;20031;-62
2023/11/04 16:22:43;;;;;;;2.15;1.10;;;;;;;;;;10258127;28;20578;-62
2023/11/04 16:27:44;;;;;;;1.08;0.98;;;;;;;;;;10264135;28;20467;-62
2023/11/04 16:32:45;;;;;;;1.13;1.00;;;;;;;;;;10261986;28;20467;-63
2023/11/04 16:37:46;;;;;;;1.35;0.98;;;;;;;;;;10253528;28;20036;-63
2023/11/04 16:42:48;;;;;;;1.00;0.98;;;;;;;;;;10238973;28;20472;-64
2023/11/04 16:47:49;;;;;;;1.17;1.08;;;;;;;;;;10242401;28;20467;-63
2023/11/04 16:52:49;;;;;;;1.08;1.00;;;;;;;;;;10239604;28;20047;-62
2023/11/04 16:57:50;;;;;;;1.35;0.90;;;;;;;;;;10231175;28;20042;-63
2023/11/04 17:02:51;;;;;;;2.40;1.13;;;;;;;;;;10247440;28;20115;-63
2023/11/04 17:07:51;;;;;;;1.25;1.10;;;;;;;;;;10234428;28;20027;-63
2023/11/04 17:12:52;;;;;;;1.10;1.00;;;;;;;;;;10236558;28;20035;-63
2023/11/04 17:17:52;;;;;;;2.67;1.00;;;;;;;;;;10235441;28;20019;-62
2023/11/04 17:22:53;;;;;;;1.55;1.30;;;;;;;;;;10220231;28;20027;-62
2023/11/04 17:27:54;;;;;;;2.28;1.10;;;;;;;;;;10223246;28;20139;-62
2023/11/04 17:32:55;;;;;;;1.45;1.20;;;;;;;;;;10217561;28;20095;-63
2023/11/04 17:37:55;;;;;;;1.40;1.30;;;;;;;;;;10221474;28;20411;-62
2023/11/04 17:42:56;;;;;;;2.22;1.35;;;;;;;;;;10234661;28;20035;-62
2023/11/04 17:47:57;;;;;;;4.40;1.23;;;;;;;;;;10222106;28;20040;-62
2023/11/04 17:52:58;;;;;;;4.10;1.63;;;;;;;;;;10225567;28;20495;-63
2023/11/04 17:57:58;;;;;;;2.42;1.30;;;;;;;;;;10239354;28;20060;-63
2023/11/04 18:02:59;;;;;;;1.52;1.13;;;;;;;;;;10241362;28;20037;-64
2023/11/04 18:08:01;;;;;;;1.45;1.15;;;;;;;;;;10238468;28;20055;-62
2023/11/04 18:13:02;;;;;;;2.95;1.35;;;;;;;;;;10244954;28;20039;-62
2023/11/04 18:18:03;;;;;;;1.40;1.30;;;;;;;;;;10241535;28;20064;-62
2023/11/04 18:23:04;;;;;;;1.45;1.05;;;;;;;;;;10252088;28;20520;-62
2023/11/04 18:28:06;;;;;;;5.45;1.48;;;;;;;;;;10245832;28;20395;-62
2023/11/04 18:33:06;;;;;;;2.15;1.27;;;;;;;;;;10239670;28;20039;-63
2023/11/04 18:38:08;;;;;;;3.50;1.42;;;;;;;;;;10222494;28;20027;-62
2023/11/04 18:43:08;;;;;;;2.58;1.67;;;;;;;;;;10246656;28;20106;-63
2023/11/04 18:48:09;;;;;;;4.60;1.90;;;;;;;;;;10241509;28;20471;-61
2023/11/04 18:53:10;;;;;;;2.90;1.52;;;;;;;;;;10243949;28;20514;-62
2023/11/04 18:58:10;;;;;;;3.85;1.80;;;;;;;;;;10246842;28;20446;-60
2023/11/04 19:03:11;;;;;;;16.88;2.78;;;;;;;;;;10238844;28;20043;-61
2023/11/04 19:08:11;;;;;;;16.27;2.53;;;;;;;;;;10243653;28;20062;-61
2023/11/04 19:13:12;;;;;;;6.50;3.00;;;;;;;;;;10242227;29;20431;-61
2023/11/04 19:18:13;;;;;;;9.32;3.45;;;;;;;;;;10242772;28;20115;-61
2023/11/04 19:23:14;;;;;;;11.90;3.20;;;;;;;;;;10251464;29;20086;-62
2023/11/04 19:28:16;;;;;;;5.07;2.65;;;;;;;;;;10252658;29;20518;-62
2023/11/04 19:33:18;;;;;;;16.58;3.15;;;;;;;;;;10252040;29;20491;-61
2023/11/04 19:38:19;;;;;;;5.35;3.38;;;;;;;;;;10251572;28;20039;-61
2023/11/04 19:43:20;;;;;;;5.78;3.20;;;;;;;;;;10251072;28;20525;-62
2023/11/04 19:48:20;;;;;;;5.15;2.83;;;;;;;;;;10251430;28;20102;-62
2023/11/04 19:53:21;;;;;;;3.85;2.90;;;;;;;;;;10250760;29;20047;-61
2023/11/04 19:58:22;;;;;;;5.15;3.00;;;;;;;;;;10251320;28;20400;-61
2023/11/04 20:03:22;;;;;;;5.80;3.13;;;;;;;;;;10250714;29;20395;-61
2023/11/04 20:08:23;;;;;;;6.75;3.05;;;;;;;;;;10250311;28;20403;-61
2023/11/04 20:13:23;;;;;;;9.07;3.08;;;;;;;;;;10251189;28;20039;-61
2023/11/04 20:18:24;;;;;;;4.03;3.08;;;;;;;;;;10246389;28;20077;-61
2023/11/04 20:23:25;;;;;;;5.20;3.38;;;;;;;;;;10241801;29;20107;-61
2023/11/04 20:28:25;;;;;;;3.80;3.13;;;;;;;;;;10250360;29;20028;-62
2023/11/04 20:33:26;;;;;;;8.98;3.15;;;;;;;;;;10249263;28;20141;-62
2023/11/04 20:38:26;;;;;;;5.47;3.13;;;;;;;;;;10247207;28;20518;-62
2023/11/04 20:43:27;;;;;;;4.45;2.70;;;;;;;;;;10224744;28;20028;-62
2023/11/04 20:48:28;;;;;;;6.30;2.90;;;;;;;;;;10248027;28;20039;-62
2023/11/04 20:53:29;;;;;;;4.95;2.92;;;;;;;;;;10243703;28;20051;-62
2023/11/04 20:58:29;;;;;;;5.10;3.20;;;;;;;;;;10224328;28;20043;-62
2023/11/04 21:03:30;;;;;;;3.42;2.53;;;;;;;;;;10230735;28;20031;-62
2023/11/04 21:08:31;;;;;;;5.13;2.90;;;;;;;;;;10224189;28;20047;-62
2023/11/04 21:13:36;;;;;;;6.38;3.08;;;;;;;;;;10236200;29;20553;-62
2023/11/04 21:18:39;;;;;;;4.22;2.92;;;;;;;;;;10245887;28;20494;-62
2023/11/04 21:23:39;;;;;;;4.18;2.50;;;;;;;;;;10239358;28;20031;-62
2023/11/04 21:28:40;;;;;;;3.78;2.50;;;;;;;;;;10230578;28;20063;-62
2023/11/04 21:33:41;;;;;;;3.53;2.25;;;;;;;;;;10234340;28;20395;-62
2023/11/04 21:38:41;;;;;;;4.53;2.08;;;;;;;;;;10247626;29;20027;-62
2023/11/04 21:43:42;;;;;;;4.78;2.53;;;;;;;;;;10243446;28;20026;-63
2023/11/04 21:48:43;;;;;;;3.47;2.10;;;;;;;;;;10246521;28;20035;-63
2023/11/04 21:53:43;;;;;;;5.47;2.72;;;;;;;;;;10238733;28;20393;-62
2023/11/04 21:58:44;;;;;;;3.13;2.20;;;;;;;;;;10245538;29;20368;-62
2023/11/04 22:03:45;;;;;;;4.55;2.28;;;;;;;;;;10238724;28;20024;-62
2023/11/04 22:08:46;;;;;;;2.90;2.10;;;;;;;;;;10241471;28;20047;-65
2023/11/04 22:13:47;;;;;;;3.75;2.15;;;;;;;;;;10230060;28;20507;-63
2023/11/04 22:18:47;;;;;;;2.45;2.05;;;;;;;;;;10238877;28;21095;-66
2023/11/04 22:23:48;;;;;;;3.45;2.20;;;;;;;;;;10232218;28;20028;-63
2023/11/04 22:28:49;;;;;;;10.38;3.63;;;;;;;;;;10244309;28;20664;-64
2023/11/04 22:33:49;;;;;;;3.53;2.15;;;;;;;;;;10238989;28;20502;-65
2023/11/04 22:38:50;;;;;;;14.48;2.10;;;;;;;;;;10242787;28;20402;-63
2023/11/04 22:43:51;;;;;;;4.78;2.08;;;;;;;;;;10242834;28;20475;-62
2023/11/04 22:48:51;;;;;;;4.30;2.17;;;;;;;;;;10246156;28;20042;-63
2023/11/04 22:53:53;;;;;;;9.07;2.60;;;;;;;;;;10243768;28;20043;-64
2023/11/04 22:58:53;;;;;;;4.40;2.10;;;;;;;;;;10262562;28;20121;-64
2023/11/04 23:03:55;;;;;;;10.05;2.15;;;;;;;;;;10256907;28;20035;-63
2023/11/04 23:08:56;;;;;;;17.55;2.05;;;;;;;;;;10255889;28;20031;-66
2023/11/04 23:13:56;;;;;;;15.15;2.25;;;;;;;;;;10257517;28;20027;-63
2023/11/04 23:18:57;;;;;;;15.43;1.90;;;;;;;;;;10257933;29;20031;-66
2023/11/04 23:23:58;;;;;;;8.02;1.80;;;;;;;;;;10251804;28;20448;-63
2023/11/04 23:28:59;;;;;;;2.35;1.60;;;;;;;;;;10254731;28;20031;-62
2023/11/04 23:33:59;;;;;;;4.80;1.92;;;;;;;;;;10257056;28;20043;-63
2023/11/04 23:39:00;;;;;;;24.60;1.90;;;;;;;;;;10256979;29;20065;-63
2023/11/04 23:44:01;;;;;;;4.18;1.75;;;;;;;;;;10255393;28;20030;-64
2023/11/04 23:49:02;;;;;;;5.22;1.52;;;;;;;;;;10255585;28;20027;-63
2023/11/04 23:54:02;;;;;;;4.15;1.70;;;;;;;;;;10255092;28;20125;-64
2023/11/04 23:59:03;;;;;;;2.70;1.65;;;;;;;;;;10257073;28;20031;-64
